Time,TemperatureF,DewpointF,PressureIn,WindDirection,WindDirectionDegrees,WindSpeedMPH,WindSpeedGustMPH,Humidity,HourlyPrecipIn,Conditions,Clouds,dailyrainin,SolarRadiationWatts/m^2,SoftwareType,DateUTC
2013-11-16 00:00:00,33.6,27.5,30.24,WSW,255,0.0,0.0,78,0.00,,---,0.00,0.00,VWS V14.01,2013-11-16 05:00:00,
2013-11-16 00:01:00,33.7,27.6,30.24,WSW,255,0.0,0.0,78,0.00,,---,0.00,0.00,VWS V14.01,2013-11-16 05:01:00,
2013-11-16 00:06:00,33.4,27.6,30.24,WSW,255,0.0,0.0,79,0.00,,---,0.00,0.00,VWS V14.01,2013-11-16 05:06:00,
2013-11-16 00:11:00,33.2,27.4,30.24,WSW,255,0.0,0.0,79,0.00,,---,0.00,0.00,VWS V14.01,2013-11-16 05:11:00,
2013-11-16 00:16:00,33.0,27.2,30.24,WSW,255,0.0,0.0,79,0.00,,---,0.00,0.00,VWS V14.01,2013-11-16 05:16:00,
2013-11-16 00:21:00,32.9,27.4,30.24,WSW,255,0.0,0.0,80,0.00,,---,0.00,0.00,VWS V14.01,2013-11-16 05:21:00,
2013-11-16 00:26:00,33.3,27.5,30.24,WSW,255,0.0,2.0,79,0.00,,---,0.00,0.00,VWS V14.01,2013-11-16 05:26:00,
2013-11-16 00:30:00,33.5,27.4,30.24,WSW,255,0.0,2.0,78,0.00,,---,0.00,0.00,VWS V14.01,2013-11-16 05:30:00,
2013-11-16 00:31:00,33.5,27.4,30.24,WSW,255,0.0,0.0,78,0.00,,---,0.00,0.00,VWS V14.01,2013-11-16 05:31:00,
2013-11-16 00:36:00,33.6,27.5,30.24,WSW,255,0.0,0.0,78,0.00,,---,0.00,0.00,VWS V14.01,2013-11-16 05:36:00,
2013-11-16 00:41:00,33.6,27.5,30.24,WSW,255,0.0,0.0,78,0.00,,---,0.00,0.00,VWS V14.01,2013-11-16 05:41:00,
2013-11-16 00:46:00,33.5,27.4,30.24,WSW,255,0.0,0.0,78,0.00,,---,0.00,0.00,VWS V14.01,2013-11-16 05:46:00,
2013-11-16 00:51:00,33.4,27.3,30.24,WSW,255,0.0,0.0,78,0.00,,---,0.00,0.00,VWS V14.01,2013-11-16 05:51:00,
2013-11-16 00:56:00,33.3,27.2,30.24,WSW,255,0.0,0.0,78,0.00,,---,0.00,0.00,VWS V14.01,2013-11-16 05:56:00,
2013-11-16 01:00:00,33.3,27.5,30.24,WSW,255,0.0,0.0,79,0.00,,---,0.00,0.00,VWS V14.01,2013-11-16 06:00:00,
2013-11-16 01:01:00,33.3,27.5,30.24,WSW,255,0.0,0.0,79,0.00,,---,0.00,0.00,VWS V14.01,2013-11-16 06:01:00,
2013-11-16 01:06:00,33.3,27.8,30.24,WSW,255,0.0,0.0,80,0.00,,---,0.00,0.00,VWS V14.01,2013-11-16 06:06:00,
2013-11-16 01:11:00,33.2,27.7,30.24,WSW,255,0.0,0.0,80,0.00,,---,0.00,0.00,VWS V14.01,2013-11-16 06:11:00,
2013-11-16 01:16:00,33.1,27.6,30.24,WSW,255,0.0,0.0,80,0.00,,---,0.00,0.00,VWS V14.01,2013-11-16 06:16:00,
2013-11-16 01:21:00,33.1,27.3,30.24,WSW,255,0.0,0.0,79,0.00,,---,0.00,0.00,VWS V14.01,2013-11-16 06:21:00,
2013-11-16 01:26:00,33.1,27.3,30.24,WSW,255,0.0,0.0,79,0.00,,---,0.00,0.00,VWS V14.01,2013-11-16 06:26:00,
2013-11-16 01:30:00,33.3,27.5,30.25,WSW,255,0.0,0.0,79,0.00,,---,0.00,0.00,VWS V14.01,2013-11-16 06:30:00,
2013-11-16 01:31:00,33.3,27.5,30.25,WSW,255,0.0,0.0,79,0.00,,---,0.00,0.00,VWS V14.01,2013-11-16 06:31:00,
2013-11-16 01:36:00,33.4,27.6,30.25,WSW,255,0.0,0.0,79,0.00,,---,0.00,0.00,VWS V14.01,2013-11-16 06:36:00,
2013-11-16 01:41:00,33.6,27.8,30.25,WSW,255,0.0,0.0,79,0.00,,---,0.00,0.00,VWS V14.01,2013-11-16 06:41:00,
2013-11-16 01:46:00,33.8,28.0,30.26,WSW,255,0.0,0.0,79,0.00,,---,0.00,0.00,VWS V14.01,2013-11-16 06:46:00,
2013-11-16 01:51:00,33.8,28.0,30.26,WSW,255,0.0,0.0,79,0.00,,---,0.00,0.00,VWS V14.01,2013-11-16 06:51:00,
2013-11-16 01:56:00,33.9,27.8,30.26,WSW,255,0.0,0.0,78,0.00,,---,0.00,0.00,VWS V14.01,2013-11-16 06:56:00,
2013-11-16 02:00:00,34.1,28.0,30.27,WSW,255,0.0,0.0,78,0.00,,---,0.00,0.00,VWS V14.01,2013-11-16 07:00:00,
2013-11-16 02:01:00,34.0,27.9,30.27,WSW,255,0.0,0.0,78,0.00,,---,0.00,0.00,VWS V14.01,2013-11-16 07:01:00,
2013-11-16 02:06:00,34.1,28.3,30.27,WSW,255,0.0,0.0,79,0.00,,---,0.00,0.00,VWS V14.01,2013-11-16 07:06:00,
2013-11-16 02:11:00,34.2,28.7,30.27,WSW,255,0.0,0.0,80,0.00,,---,0.00,0.00,VWS V14.01,2013-11-16 07:11:00,
2013-11-16 02:16:00,34.2,28.7,30.27,WSW,255,0.0,0.0,80,0.00,,---,0.00,0.00,VWS V14.01,2013-11-16 07:16:00,
2013-11-16 02:21:00,34.3,28.8,30.27,WSW,255,0.0,0.0,80,0.00,,---,0.00,0.00,VWS V14.01,2013-11-16 07:21:00,
2013-11-16 02:26:00,34.3,28.8,30.27,WSW,255,0.0,0.0,80,0.00,,---,0.00,0.00,VWS V14.01,2013-11-16 07:26:00,
2013-11-16 02:30:00,34.2,29.0,30.27,WSW,255,0.0,0.0,81,0.00,,---,0.00,0.00,VWS V14.01,2013-11-16 07:30:00,
2013-11-16 02:31:00,34.1,28.9,30.27,WSW,255,0.0,0.0,81,0.00,,---,0.00,0.00,VWS V14.01,2013-11-16 07:31:00,
2013-11-16 02:36:00,34.1,28.9,30.27,WSW,255,0.0,0.0,81,0.00,,---,0.00,0.00,VWS V14.01,2013-11-16 07:36:00,
2013-11-16 02:41:00,34.1,28.9,30.27,WSW,255,0.0,0.0,81,0.00,,---,0.00,0.00,VWS V14.01,2013-11-16 07:41:00,
2013-11-16 02:46:00,34.1,28.6,30.27,WSW,255,0.0,0.0,80,0.00,,---,0.00,0.00,VWS V14.01,2013-11-16 07:46:00,
2013-11-16 02:51:00,34.2,28.7,30.26,NE,41,0.0,3.0,80,0.00,,---,0.00,0.00,VWS V14.01,2013-11-16 07:51:00,
2013-11-16 02:56:00,34.6,28.8,30.26,NE,41,0.0,3.0,79,0.00,,---,0.00,0.00,VWS V14.01,2013-11-16 07:56:00,
2013-11-16 03:00:00,34.7,29.2,30.27,NE,41,0.0,3.0,80,0.00,,---,0.00,0.00,VWS V14.01,2013-11-16 08:00:00,
2013-11-16 03:01:00,34.7,29.2,30.27,NE,41,0.0,0.0,80,0.00,,---,0.00,0.00,VWS V14.01,2013-11-16 08:01:00,
2013-11-16 03:06:00,34.7,28.9,30.27,NE,41,0.0,0.0,79,0.00,,---,0.00,0.00,VWS V14.01,2013-11-16 08:06:00,
2013-11-16 03:11:00,34.7,29.2,30.27,NE,41,0.0,0.0,80,0.00,,---,0.00,0.00,VWS V14.01,2013-11-16 08:11:00,
2013-11-16 03:16:00,34.7,28.9,30.27,NE,41,0.0,3.0,79,0.00,,---,0.00,0.00,VWS V14.01,2013-11-16 08:16:00,
2013-11-16 03:21:00,34.8,28.6,30.27,NE,41,0.0,3.0,78,0.00,,---,0.00,0.00,VWS V14.01,2013-11-16 08:21:00,
2013-11-16 03:26:00,35.0,28.9,30.27,NE,41,0.0,3.0,78,0.00,,---,0.00,0.00,VWS V14.01,2013-11-16 08:26:00,
2013-11-16 03:30:00,35.1,28.9,30.28,NE,41,0.0,3.0,78,0.00,,---,0.00,0.00,VWS V14.01,2013-11-16 08:30:00,
2013-11-16 03:31:00,35.1,28.9,30.28,NE,41,0.0,0.0,78,0.00,,---,0.00,0.00,VWS V14.01,2013-11-16 08:31:00,
2013-11-16 03:36:00,35.2,29.4,30.28,NE,41,0.0,0.0,79,0.00,,---,0.00,0.00,VWS V14.01,2013-11-16 08:36:00,
2013-11-16 03:41:00,35.2,29.7,30.28,NE,41,0.0,1.0,80,0.00,,---,0.00,0.00,VWS V14.01,2013-11-16 08:41:00,
2013-11-16 03:46:00,35.2,29.7,30.28,NE,41,0.0,1.0,80,0.00,,---,0.00,0.00,VWS V14.01,2013-11-16 08:46:00,
2013-11-16 03:51:00,35.2,29.4,30.28,NE,41,0.0,1.0,79,0.00,,---,0.00,0.00,VWS V14.01,2013-11-16 08:51:00,
2013-11-16 03:56:00,35.2,29.4,30.28,NE,41,0.0,1.0,79,0.00,,---,0.00,0.00,VWS V14.01,2013-11-16 08:56:00,
2013-11-16 04:00:00,35.3,29.5,30.28,NE,41,0.0,1.0,79,0.00,,---,0.00,0.00,VWS V14.01,2013-11-16 09:00:00,
2013-11-16 04:01:00,35.3,29.5,30.28,NE,41,0.0,0.0,79,0.00,,---,0.00,0.00,VWS V14.01,2013-11-16 09:01:00,
2013-11-16 04:06:00,35.4,29.9,30.28,NE,41,0.0,0.0,80,0.00,,---,0.00,0.00,VWS V14.01,2013-11-16 09:06:00,
2013-11-16 04:11:00,35.4,29.9,30.28,NE,41,0.0,0.0,80,0.00,,---,0.00,0.00,VWS V14.01,2013-11-16 09:11:00,
2013-11-16 04:16:00,35.5,30.3,30.29,NE,41,0.0,0.0,81,0.00,,---,0.00,0.00,VWS V14.01,2013-11-16 09:16:00,
2013-11-16 04:21:00,35.6,30.4,30.29,NE,41,0.0,0.0,81,0.00,,---,0.00,0.00,VWS V14.01,2013-11-16 09:21:00,
2013-11-16 04:26:00,35.7,30.5,30.29,NE,41,0.0,0.0,81,0.00,,---,0.00,0.00,VWS V14.01,2013-11-16 09:26:00,
2013-11-16 04:30:00,36.0,30.1,30.29,WNW,303,0.0,2.0,79,0.00,,---,0.00,0.00,VWS V14.01,2013-11-16 09:30:00,
2013-11-16 04:31:00,36.0,30.1,30.29,WNW,303,0.0,2.0,79,0.00,,---,0.00,0.00,VWS V14.01,2013-11-16 09:31:00,
2013-11-16 04:36:00,36.3,30.7,30.29,East,96,2.0,2.0,80,0.00,,---,0.00,0.00,VWS V14.01,2013-11-16 09:36:00,
2013-11-16 04:41:00,36.9,30.7,30.29,East,96,0.0,2.0,78,0.00,,---,0.00,0.00,VWS V14.01,2013-11-16 09:41:00,
2013-11-16 04:46:00,37.5,30.6,30.29,East,96,0.0,2.0,76,0.00,,---,0.00,0.00,VWS V14.01,2013-11-16 09:46:00,
2013-11-16 04:51:00,37.9,31.0,30.29,East,96,0.0,2.0,76,0.00,,---,0.00,0.00,VWS V14.01,2013-11-16 09:51:00,
2013-11-16 04:56:00,38.8,31.2,30.29,WSW,238,0.0,3.0,74,0.00,,---,0.00,0.00,VWS V14.01,2013-11-16 09:56:00,
2013-11-16 05:00:00,39.8,31.9,30.29,WSW,238,0.0,3.0,73,0.00,,---,0.00,0.00,VWS V14.01,2013-11-16 10:00:00,
2013-11-16 05:01:00,39.8,31.9,30.29,WSW,238,0.0,3.0,73,0.00,,---,0.00,0.00,VWS V14.01,2013-11-16 10:01:00,
2013-11-16 05:06:00,40.8,32.8,30.29,SW,223,0.0,3.0,73,0.00,,---,0.00,0.00,VWS V14.01,2013-11-16 10:06:00,
2013-11-16 05:11:00,41.3,33.0,30.29,SSE,161,0.0,3.0,72,0.00,,---,0.00,0.00,VWS V14.01,2013-11-16 10:11:00,
2013-11-16 05:16:00,41.6,33.3,30.29,South,169,0.0,3.0,72,0.00,,---,0.00,0.00,VWS V14.01,2013-11-16 10:16:00,
2013-11-16 05:21:00,41.6,33.6,30.29,South,169,0.0,3.0,73,0.00,,---,0.00,0.00,VWS V14.01,2013-11-16 10:21:00,
2013-11-16 05:26:00,41.6,33.9,30.28,South,169,0.0,3.0,74,0.00,,---,0.00,0.00,VWS V14.01,2013-11-16 10:26:00,
2013-11-16 05:30:00,41.6,33.9,30.28,South,169,0.0,3.0,74,0.00,,---,0.00,0.00,VWS V14.01,2013-11-16 10:30:00,
2013-11-16 05:31:00,41.6,33.9,30.28,South,169,0.0,3.0,74,0.00,,---,0.00,0.00,VWS V14.01,2013-11-16 10:31:00,
2013-11-16 05:36:00,41.5,34.2,30.28,South,169,0.0,0.0,75,0.00,,---,0.00,0.00,VWS V14.01,2013-11-16 10:36:00,
2013-11-16 05:41:00,41.1,34.1,30.28,WNW,284,0.0,2.0,76,0.00,,---,0.00,0.00,VWS V14.01,2013-11-16 10:41:00,
2013-11-16 05:46:00,41.3,34.3,30.28,WNW,284,0.0,2.0,76,0.00,,---,0.00,0.00,VWS V14.01,2013-11-16 10:46:00,
2013-11-16 05:51:00,41.4,34.4,30.28,WNW,284,0.0,2.0,76,0.00,,---,0.00,0.00,VWS V14.01,2013-11-16 10:51:00,
2013-11-16 05:56:00,41.1,33.5,30.28,WNW,284,0.0,2.0,74,0.00,,---,0.00,0.00,VWS V14.01,2013-11-16 10:56:00,
2013-11-16 06:00:00,40.8,33.5,30.28,WNW,284,0.0,2.0,75,0.00,,---,0.00,0.00,VWS V14.01,2013-11-16 11:00:00,
2013-11-16 06:01:00,40.8,33.5,30.28,WNW,284,0.0,2.0,75,0.00,,---,0.00,0.00,VWS V14.01,2013-11-16 11:01:00,
2013-11-16 06:06:00,40.5,33.5,30.28,WNW,284,0.0,0.0,76,0.00,,---,0.00,0.00,VWS V14.01,2013-11-16 11:06:00,
2013-11-16 06:11:00,40.4,33.8,30.28,WNW,284,0.0,0.0,77,0.00,,---,0.00,0.00,VWS V14.01,2013-11-16 11:11:00,
2013-11-16 06:16:00,40.2,33.6,30.28,WNW,284,0.0,0.0,77,0.00,,---,0.00,0.00,VWS V14.01,2013-11-16 11:16:00,
2013-11-16 06:21:00,39.9,33.6,30.28,WNW,284,0.0,0.0,78,0.00,,---,0.00,0.00,VWS V14.01,2013-11-16 11:21:00,
2013-11-16 06:26:00,39.6,33.3,30.29,WNW,284,0.0,0.0,78,0.00,,---,0.00,0.00,VWS V14.01,2013-11-16 11:26:00,
2013-11-16 06:30:00,39.3,33.3,30.29,WNW,284,0.0,0.0,79,0.00,,---,0.00,0.00,VWS V14.01,2013-11-16 11:30:00,
2013-11-16 06:31:00,39.3,33.3,30.29,WNW,284,0.0,0.0,79,0.00,,---,0.00,0.00,VWS V14.01,2013-11-16 11:31:00,
2013-11-16 06:36:00,39.0,33.0,30.30,WNW,284,0.0,0.0,79,0.00,,---,0.00,0.00,VWS V14.01,2013-11-16 11:36:00,
2013-11-16 06:41:00,38.8,33.2,30.30,WNW,284,0.0,0.0,80,0.00,,---,0.00,0.00,VWS V14.01,2013-11-16 11:41:00,
2013-11-16 06:46:00,38.7,33.1,30.30,WNW,284,0.0,0.0,80,0.00,,---,0.00,0.00,VWS V14.01,2013-11-16 11:46:00,
2013-11-16 06:51:00,38.5,33.5,30.30,WNW,284,0.0,0.0,82,0.00,,---,0.00,0.00,VWS V14.01,2013-11-16 11:51:00,
2013-11-16 06:56:00,38.2,33.2,30.30,WNW,284,0.0,0.0,82,0.00,,---,0.00,0.00,VWS V14.01,2013-11-16 11:56:00,
2013-11-16 07:00:00,37.9,32.9,30.31,WNW,284,0.0,0.0,82,0.00,,---,0.00,5.00,VWS V14.01,2013-11-16 12:00:00,
2013-11-16 07:01:00,37.9,32.9,30.31,WNW,284,0.0,0.0,82,0.00,,---,0.00,5.00,VWS V14.01,2013-11-16 12:01:00,
2013-11-16 07:06:00,37.6,32.9,30.31,WNW,284,0.0,0.0,83,0.00,,---,0.00,5.00,VWS V14.01,2013-11-16 12:06:00,
2013-11-16 07:11:00,37.5,32.5,30.31,WNW,284,0.0,0.0,82,0.00,,---,0.00,7.00,VWS V14.01,2013-11-16 12:11:00,
2013-11-16 07:16:00,37.4,32.7,30.31,WNW,284,0.0,0.0,83,0.00,,---,0.00,9.00,VWS V14.01,2013-11-16 12:16:00,
2013-11-16 07:21:00,37.1,32.4,30.31,WNW,284,0.0,0.0,83,0.00,,---,0.00,11.00,VWS V14.01,2013-11-16 12:21:00,
2013-11-16 07:26:00,36.9,32.5,30.32,WNW,284,0.0,0.0,84,0.00,,---,0.00,12.00,VWS V14.01,2013-11-16 12:26:00,
2013-11-16 07:30:00,36.6,32.2,30.31,WNW,284,0.0,0.0,84,0.00,,---,0.00,16.00,VWS V14.01,2013-11-16 12:30:00,
2013-11-16 07:31:00,36.6,32.2,30.31,WNW,284,0.0,0.0,84,0.00,,---,0.00,16.00,VWS V14.01,2013-11-16 12:31:00,
2013-11-16 07:36:00,36.3,32.2,30.32,WNW,284,0.0,0.0,85,0.00,,---,0.00,28.00,VWS V14.01,2013-11-16 12:36:00,
2013-11-16 07:41:00,36.1,32.3,30.32,WNW,284,0.0,0.0,86,0.00,,---,0.00,33.00,VWS V14.01,2013-11-16 12:41:00,
2013-11-16 07:46:00,36.1,32.6,30.32,WNW,284,0.0,0.0,87,0.00,,---,0.00,33.00,VWS V14.01,2013-11-16 12:46:00,
2013-11-16 07:51:00,36.3,32.5,30.33,WNW,284,0.0,0.0,86,0.00,,---,0.00,56.00,VWS V14.01,2013-11-16 12:51:00,
2013-11-16 07:56:00,36.9,33.4,30.33,WNW,284,0.0,0.0,87,0.00,,---,0.00,102.00,VWS V14.01,2013-11-16 12:56:00,
2013-11-16 08:00:00,37.6,33.8,30.33,WNW,284,0.0,0.0,86,0.00,,---,0.00,114.00,VWS V14.01,2013-11-16 13:00:00,
2013-11-16 08:01:00,37.6,33.8,30.33,WNW,284,0.0,0.0,86,0.00,,---,0.00,114.00,VWS V14.01,2013-11-16 13:01:00,
2013-11-16 08:06:00,38.4,34.0,30.33,WNW,284,0.0,0.0,84,0.00,,---,0.00,130.00,VWS V14.01,2013-11-16 13:06:00,
2013-11-16 08:11:00,39.2,33.9,30.33,WNW,284,0.0,0.0,81,0.00,,---,0.00,144.00,VWS V14.01,2013-11-16 13:11:00,
2013-11-16 08:16:00,40.2,34.5,30.33,WNW,284,0.0,0.0,80,0.00,,---,0.00,160.00,VWS V14.01,2013-11-16 13:16:00,
2013-11-16 08:21:00,41.0,34.7,30.33,WNW,284,0.0,0.0,78,0.00,,---,0.00,176.00,VWS V14.01,2013-11-16 13:21:00,
2013-11-16 08:26:00,41.8,35.5,30.33,WNW,284,0.0,0.0,78,0.00,,---,0.00,190.00,VWS V14.01,2013-11-16 13:26:00,
2013-11-16 08:30:00,42.7,36.0,30.33,WNW,284,0.0,1.0,77,0.00,,---,0.00,144.00,VWS V14.01,2013-11-16 13:30:00,
2013-11-16 08:31:00,42.7,36.0,30.33,WNW,284,0.0,1.0,77,0.00,,---,0.00,127.00,VWS V14.01,2013-11-16 13:31:00,
2013-11-16 08:36:00,43.4,36.7,30.33,WNW,284,0.0,2.0,77,0.00,,---,0.00,211.00,VWS V14.01,2013-11-16 13:36:00,
2013-11-16 08:41:00,44.0,37.6,30.33,WNW,284,1.0,2.0,78,0.00,,---,0.00,234.00,VWS V14.01,2013-11-16 13:41:00,
2013-11-16 08:46:00,44.6,38.2,30.33,WNW,284,0.0,2.0,78,0.00,,---,0.00,246.00,VWS V14.01,2013-11-16 13:46:00,
2013-11-16 08:51:00,45.2,38.8,30.34,WNW,284,0.0,2.0,78,0.00,,---,0.00,258.00,VWS V14.01,2013-11-16 13:51:00,
2013-11-16 08:56:00,45.6,39.2,30.34,WNW,284,0.0,2.0,78,0.00,,---,0.00,269.00,VWS V14.01,2013-11-16 13:56:00,
2013-11-16 09:00:00,46.5,39.7,30.34,WNW,284,0.0,2.0,77,0.00,,---,0.00,281.00,VWS V14.01,2013-11-16 14:00:00,
2013-11-16 09:01:00,46.4,39.6,30.34,WNW,284,0.0,2.0,77,0.00,,---,0.00,279.00,VWS V14.01,2013-11-16 14:01:00,
2013-11-16 09:06:00,47.0,39.8,30.34,WNW,284,0.0,1.0,76,0.00,,---,0.00,292.00,VWS V14.01,2013-11-16 14:06:00,
2013-11-16 09:11:00,47.6,40.4,30.34,WNW,284,0.0,2.0,76,0.00,,---,0.00,302.00,VWS V14.01,2013-11-16 14:11:00,
2013-11-16 09:16:00,48.1,40.6,30.34,NE,49,0.0,2.0,75,0.00,,---,0.00,313.00,VWS V14.01,2013-11-16 14:16:00,
2013-11-16 09:21:00,48.5,40.6,30.34,SE,134,0.0,3.0,74,0.00,,---,0.00,323.00,VWS V14.01,2013-11-16 14:21:00,
2013-11-16 09:26:00,48.6,40.0,30.34,SW,230,0.0,3.0,72,0.00,,---,0.00,334.00,VWS V14.01,2013-11-16 14:26:00,
2013-11-16 09:30:00,48.5,39.9,30.34,SW,230,0.0,3.0,72,0.00,,---,0.00,343.00,VWS V14.01,2013-11-16 14:30:00,
2013-11-16 09:31:00,48.5,39.9,30.34,SW,230,0.0,3.0,72,0.00,,---,0.00,343.00,VWS V14.01,2013-11-16 14:31:00,
2013-11-16 09:36:00,48.6,39.6,30.35,ENE,78,0.0,5.0,71,0.00,,---,0.00,353.00,VWS V14.01,2013-11-16 14:36:00,
2013-11-16 09:41:00,49.0,40.4,30.35,SE,146,3.0,5.0,72,0.00,,---,0.00,360.00,VWS V14.01,2013-11-16 14:41:00,
2013-11-16 09:46:00,49.4,41.1,30.34,SE,135,1.0,5.0,73,0.00,,---,0.00,371.00,VWS V14.01,2013-11-16 14:46:00,
2013-11-16 09:51:00,49.8,40.0,30.35,SSE,156,3.0,5.0,69,0.00,,---,0.00,380.00,VWS V14.01,2013-11-16 14:51:00,
2013-11-16 09:56:00,50.1,40.7,30.34,SE,145,1.0,5.0,70,0.00,,---,0.00,387.00,VWS V14.01,2013-11-16 14:56:00,
2013-11-16 10:00:00,50.5,41.1,30.34,SE,131,0.0,5.0,70,0.00,,---,0.00,396.00,VWS V14.01,2013-11-16 15:00:00,
2013-11-16 10:01:00,50.5,41.1,30.34,SE,131,0.0,5.0,70,0.00,,---,0.00,396.00,VWS V14.01,2013-11-16 15:01:00,
2013-11-16 10:06:00,50.8,40.6,30.34,SSE,155,0.0,3.0,68,0.00,,---,0.00,401.00,VWS V14.01,2013-11-16 15:06:00,
2013-11-16 10:11:00,51.2,40.6,30.34,SSE,155,0.0,3.0,67,0.00,,---,0.00,406.00,VWS V14.01,2013-11-16 15:11:00,
2013-11-16 10:16:00,51.7,41.1,30.34,SSE,155,0.0,3.0,67,0.00,,---,0.00,415.00,VWS V14.01,2013-11-16 15:16:00,
2013-11-16 10:21:00,52.0,41.0,30.34,SSE,153,0.0,3.0,66,0.00,,---,0.00,422.00,VWS V14.01,2013-11-16 15:21:00,
2013-11-16 10:26:00,52.3,41.3,30.34,SE,142,0.0,5.0,66,0.00,,---,0.00,425.00,VWS V14.01,2013-11-16 15:26:00,
2013-11-16 10:30:00,52.5,41.1,30.34,East,98,0.0,5.0,65,0.00,,---,0.00,432.00,VWS V14.01,2013-11-16 15:30:00,
2013-11-16 10:31:00,52.5,41.1,30.34,East,98,0.0,5.0,65,0.00,,---,0.00,432.00,VWS V14.01,2013-11-16 15:31:00,
2013-11-16 10:36:00,52.8,41.0,30.35,WSW,257,3.0,5.0,64,0.00,,---,0.00,434.00,VWS V14.01,2013-11-16 15:36:00,
2013-11-16 10:41:00,53.2,41.3,30.34,SE,136,2.0,5.0,64,0.00,,---,0.00,441.00,VWS V14.01,2013-11-16 15:41:00,
2013-11-16 10:46:00,53.4,41.1,30.34,West,270,0.0,5.0,63,0.00,,---,0.00,445.00,VWS V14.01,2013-11-16 15:46:00,
2013-11-16 10:51:00,53.3,40.6,30.34,SSE,157,0.0,5.0,62,0.00,,---,0.00,448.00,VWS V14.01,2013-11-16 15:51:00,
2013-11-16 10:56:00,53.4,40.7,30.34,SSE,159,0.0,5.0,62,0.00,,---,0.00,454.00,VWS V14.01,2013-11-16 15:56:00,
2013-11-16 11:00:00,53.6,40.9,30.34,SSE,163,0.0,5.0,62,0.00,,---,0.00,457.00,VWS V14.01,2013-11-16 16:00:00,
2013-11-16 11:01:00,53.6,40.9,30.34,SSE,163,0.0,5.0,62,0.00,,---,0.00,457.00,VWS V14.01,2013-11-16 16:01:00,
2013-11-16 11:06:00,53.9,41.2,30.34,SSE,149,1.0,4.0,62,0.00,,---,0.00,459.00,VWS V14.01,2013-11-16 16:06:00,
2013-11-16 11:11:00,54.1,41.4,30.34,West,264,3.0,4.0,62,0.00,,---,0.00,446.00,VWS V14.01,2013-11-16 16:11:00,
2013-11-16 11:16:00,53.9,41.2,30.34,South,175,0.0,4.0,62,0.00,,---,0.00,345.00,VWS V14.01,2013-11-16 16:16:00,
2013-11-16 11:21:00,53.9,40.8,30.33,WSW,237,0.0,5.0,61,0.00,,---,0.00,163.00,VWS V14.01,2013-11-16 16:21:00,
2013-11-16 11:26:00,53.8,40.7,30.34,West,269,0.0,5.0,61,0.00,,---,0.00,183.00,VWS V14.01,2013-11-16 16:26:00,
2013-11-16 11:30:00,53.9,41.2,30.33,SSE,149,0.0,5.0,62,0.00,,---,0.00,132.00,VWS V14.01,2013-11-16 16:30:00,
2013-11-16 11:31:00,53.9,41.2,30.33,SSE,149,0.0,5.0,62,0.00,,---,0.00,132.00,VWS V14.01,2013-11-16 16:31:00,
2013-11-16 11:36:00,54.2,41.5,30.33,ESE,102,0.0,5.0,62,0.00,,---,0.00,167.00,VWS V14.01,2013-11-16 16:36:00,
2013-11-16 11:41:00,54.4,41.7,30.33,ENE,64,1.0,5.0,62,0.00,,---,0.00,186.00,VWS V14.01,2013-11-16 16:41:00,
2013-11-16 11:46:00,54.5,41.3,30.32,SSE,154,3.0,5.0,61,0.00,,---,0.00,79.00,VWS V14.01,2013-11-16 16:46:00,
2013-11-16 11:51:00,54.5,41.3,30.32,East,80,0.0,5.0,61,0.00,,---,0.00,149.00,VWS V14.01,2013-11-16 16:51:00,
2013-11-16 12:00:00,57.9,38.9,30.30,West,274,0.0,4.0,49,0.00,,---,0.00,424.00,VWS V15.00,2013-11-16 17:00:00,
2013-11-16 12:04:00,54.6,41.4,30.32,SE,134,0.0,5.0,61,0.00,,---,0.00,98.00,VWS V14.01,2013-11-16 17:04:00,
2013-11-16 12:09:00,54.8,40.8,30.31,WSW,255,3.0,5.0,59,0.00,,---,0.00,162.00,VWS V14.01,2013-11-16 17:09:00,
2013-11-16 12:14:00,54.9,41.3,30.31,SE,133,0.0,5.0,60,0.00,,---,0.00,155.00,VWS V14.01,2013-11-16 17:14:00,
2013-11-16 12:19:00,55.0,41.0,30.30,SW,229,0.0,5.0,59,0.00,,---,0.00,251.00,VWS V14.01,2013-11-16 17:19:00,
2013-11-16 12:24:00,55.3,41.2,30.30,South,175,3.0,5.0,59,0.00,,---,0.00,283.00,VWS V14.01,2013-11-16 17:24:00,
2013-11-16 12:29:00,55.7,40.7,30.30,WSW,241,0.0,5.0,57,0.00,,---,0.00,190.00,VWS V14.01,2013-11-16 17:29:00,
2013-11-16 12:30:00,55.7,40.7,30.30,WSW,241,2.0,5.0,57,0.00,,---,0.00,109.00,VWS V14.01,2013-11-16 17:30:00,
2013-11-16 12:34:00,55.8,39.9,30.30,WSW,241,0.0,2.0,55,0.00,,---,0.00,202.00,VWS V14.01,2013-11-16 17:34:00,
2013-11-16 12:39:00,56.2,40.3,30.30,NW,306,3.0,3.0,55,0.00,,---,0.00,155.00,VWS V14.01,2013-11-16 17:39:00,
2013-11-16 12:44:00,56.6,38.7,30.30,NW,306,0.0,3.0,51,0.00,,---,0.00,415.00,VWS V14.01,2013-11-16 17:44:00,
2013-11-16 12:49:00,57.0,40.1,30.30,WSW,238,2.0,3.0,53,0.00,,---,0.00,438.00,VWS V14.01,2013-11-16 17:49:00,
2013-11-16 12:54:00,57.4,37.3,30.30,SW,230,0.0,4.0,47,0.00,,---,0.00,432.00,VWS V14.01,2013-11-16 17:54:00,
2013-11-16 12:59:00,57.7,37.6,30.30,West,274,0.0,4.0,47,0.00,,---,0.00,425.00,VWS V14.01,2013-11-16 17:59:00,
2013-11-16 13:00:00,57.9,38.9,30.30,West,274,0.0,4.0,49,0.00,,---,0.00,424.00,VWS V14.01,2013-11-16 18:00:00,
2013-11-16 13:04:00,58.1,38.0,30.30,SSW,204,0.0,2.0,47,0.00,,---,0.00,418.00,VWS V14.01,2013-11-16 18:04:00,
2013-11-16 13:09:00,58.2,37.5,30.30,East,79,0.0,2.0,46,0.00,,---,0.00,413.00,VWS V14.01,2013-11-16 18:09:00,
2013-11-16 13:14:00,58.4,37.2,30.30,East,79,0.0,2.0,45,0.00,,---,0.00,406.00,VWS V14.01,2013-11-16 18:14:00,
2013-11-16 13:19:00,58.7,38.0,30.30,East,83,0.0,3.0,46,0.00,,---,0.00,397.00,VWS V14.01,2013-11-16 18:19:00,
2013-11-16 13:24:00,59.0,38.3,30.30,East,97,0.0,3.0,46,0.00,,---,0.00,392.00,VWS V14.01,2013-11-16 18:24:00,
2013-11-16 13:29:00,59.3,38.5,30.30,SSW,205,0.0,3.0,46,0.00,,---,0.00,383.00,VWS V14.01,2013-11-16 18:29:00,
2013-11-16 13:30:00,59.5,39.3,30.30,SSW,205,2.0,3.0,47,0.00,,---,0.00,381.00,VWS V14.01,2013-11-16 18:30:00,
2013-11-16 13:34:00,59.5,38.2,30.30,WSW,257,1.0,3.0,45,0.00,,---,0.00,378.00,VWS V14.01,2013-11-16 18:34:00,
2013-11-16 13:39:00,59.5,37.6,30.30,WSW,257,0.0,3.0,44,0.00,,---,0.00,367.00,VWS V14.01,2013-11-16 18:39:00,
2013-11-16 13:44:00,59.6,38.2,30.29,WSW,257,0.0,3.0,45,0.00,,---,0.00,360.00,VWS V14.01,2013-11-16 18:44:00,
2013-11-16 13:49:00,59.6,37.1,30.29,WSW,257,0.0,3.0,43,0.00,,---,0.00,350.00,VWS V14.01,2013-11-16 18:49:00,
2013-11-16 13:54:00,59.6,37.7,30.29,West,279,2.0,3.0,44,0.00,,---,0.00,339.00,VWS V14.01,2013-11-16 18:54:00,
2013-11-16 13:59:00,59.9,39.1,30.29,West,279,0.0,3.0,46,0.00,,---,0.00,330.00,VWS V14.01,2013-11-16 18:59:00,
2013-11-16 14:00:00,60.0,38.0,30.29,West,279,1.0,3.0,44,0.00,,---,0.00,327.00,VWS V14.01,2013-11-16 19:00:00,
2013-11-16 14:04:00,60.1,38.1,30.29,West,279,0.0,2.0,44,0.00,,---,0.00,320.00,VWS V14.01,2013-11-16 19:04:00,
2013-11-16 14:09:00,60.0,37.5,30.29,West,279,0.0,3.0,43,0.00,,---,0.00,309.00,VWS V14.01,2013-11-16 19:09:00,
2013-11-16 14:14:00,60.0,38.6,30.29,West,279,0.0,3.0,45,0.00,,---,0.00,301.00,VWS V14.01,2013-11-16 19:14:00,
2013-11-16 14:19:00,59.9,38.0,30.29,West,279,0.0,3.0,44,0.00,,---,0.00,292.00,VWS V14.01,2013-11-16 19:19:00,
2013-11-16 14:24:00,59.7,36.6,30.29,West,279,0.0,3.0,42,0.00,,---,0.00,281.00,VWS V14.01,2013-11-16 19:24:00,
2013-11-16 14:29:00,59.4,36.3,30.29,SSW,194,1.0,3.0,42,0.00,,---,0.00,243.00,VWS V14.01,2013-11-16 19:29:00,
2013-11-16 14:30:00,59.4,36.9,30.29,WSW,254,1.0,3.0,43,0.00,,---,0.00,220.00,VWS V14.01,2013-11-16 19:30:00,
2013-11-16 14:34:00,59.2,36.1,30.29,WNW,294,0.0,4.0,42,0.00,,---,0.00,93.00,VWS V14.01,2013-11-16 19:34:00,
2013-11-16 14:39:00,58.8,36.4,30.29,WNW,294,1.0,4.0,43,0.00,,---,0.00,88.00,VWS V14.01,2013-11-16 19:39:00,
2013-11-16 14:44:00,58.4,36.0,30.30,WNW,294,0.0,4.0,43,0.00,,---,0.00,74.00,VWS V14.01,2013-11-16 19:44:00,
2013-11-16 14:49:00,58.2,35.8,30.30,WNW,294,1.0,4.0,43,0.00,,---,0.00,95.00,VWS V14.01,2013-11-16 19:49:00,
2013-11-16 14:54:00,58.0,35.7,30.30,WNW,294,0.0,4.0,43,0.00,,---,0.00,63.00,VWS V14.01,2013-11-16 19:54:00,
2013-11-16 14:59:00,57.9,34.4,30.30,SSW,201,0.0,4.0,41,0.00,,---,0.00,83.00,VWS V14.01,2013-11-16 19:59:00,
2013-11-16 15:00:00,57.9,34.4,30.30,SW,235,3.0,4.0,41,0.00,,---,0.00,81.00,VWS V14.01,2013-11-16 20:00:00,
2013-11-16 15:04:00,57.9,34.4,30.30,SW,235,0.0,3.0,41,0.00,,---,0.00,56.00,VWS V14.01,2013-11-16 20:04:00,
2013-11-16 15:09:00,57.8,34.3,30.29,SW,235,0.0,3.0,41,0.00,,---,0.00,70.00,VWS V14.01,2013-11-16 20:09:00,
2013-11-16 15:14:00,57.7,34.2,30.29,SW,235,0.0,3.0,41,0.00,,---,0.00,32.00,VWS V14.01,2013-11-16 20:14:00,
2013-11-16 15:19:00,57.4,34.5,30.29,SW,235,0.0,3.0,42,0.00,,---,0.00,25.00,VWS V14.01,2013-11-16 20:19:00,
2013-11-16 15:24:00,57.1,34.2,30.29,SW,235,0.0,3.0,42,0.00,,---,0.00,25.00,VWS V14.01,2013-11-16 20:24:00,
2013-11-16 15:29:00,56.8,34.0,30.29,SW,235,0.0,3.0,42,0.00,,---,0.00,26.00,VWS V14.01,2013-11-16 20:29:00,
2013-11-16 15:30:00,56.8,34.0,30.29,SW,235,0.0,3.0,42,0.00,,---,0.00,25.00,VWS V14.01,2013-11-16 20:30:00,
2013-11-16 15:34:00,56.6,34.4,30.29,SW,235,0.0,0.0,43,0.00,,---,0.00,26.00,VWS V14.01,2013-11-16 20:34:00,
2013-11-16 15:39:00,56.3,34.7,30.29,SW,235,0.0,0.0,44,0.00,,---,0.00,21.00,VWS V14.01,2013-11-16 20:39:00,
2013-11-16 15:44:00,55.9,34.9,30.29,SW,235,0.0,0.0,45,0.00,,---,0.00,19.00,VWS V14.01,2013-11-16 20:44:00,
2013-11-16 15:49:00,55.5,34.5,30.30,SW,235,0.0,0.0,45,0.00,,---,0.00,16.00,VWS V14.01,2013-11-16 20:49:00,
2013-11-16 15:54:00,55.0,34.1,30.30,SW,235,0.0,0.0,45,0.00,,---,0.00,14.00,VWS V14.01,2013-11-16 20:54:00,
2013-11-16 15:59:00,54.5,35.2,30.30,SW,235,0.0,0.0,48,0.00,,---,0.00,12.00,VWS V14.01,2013-11-16 20:59:00,
2013-11-16 16:00:00,54.3,35.0,30.30,SW,235,0.0,0.0,48,0.00,,---,0.00,12.00,VWS V14.01,2013-11-16 21:00:00,
2013-11-16 16:04:00,53.9,34.7,30.30,SW,235,0.0,0.0,48,0.00,,---,0.00,12.00,VWS V14.01,2013-11-16 21:04:00,
2013-11-16 16:09:00,53.0,34.4,30.30,SW,235,0.0,0.0,49,0.00,,---,0.00,11.00,VWS V14.01,2013-11-16 21:09:00,
2013-11-16 16:14:00,52.4,34.3,30.30,SW,235,0.0,0.0,50,0.00,,---,0.00,11.00,VWS V14.01,2013-11-16 21:14:00,
2013-11-16 16:19:00,51.7,34.7,30.30,SW,235,0.0,0.0,52,0.00,,---,0.00,11.00,VWS V14.01,2013-11-16 21:19:00,
2013-11-16 16:24:00,51.1,34.6,30.30,SW,235,0.0,0.0,53,0.00,,---,0.00,7.00,VWS V14.01,2013-11-16 21:24:00,
2013-11-16 16:29:00,50.4,34.9,30.30,SW,235,0.0,0.0,55,0.00,,---,0.00,5.00,VWS V14.01,2013-11-16 21:29:00,
2013-11-16 16:30:00,50.1,34.6,30.30,SW,235,0.0,0.0,55,0.00,,---,0.00,0.00,VWS V14.01,2013-11-16 21:30:00,
2013-11-16 16:34:00,49.7,34.2,30.30,SW,235,0.0,0.0,55,0.00,,---,0.00,0.00,VWS V14.01,2013-11-16 21:34:00,
2013-11-16 16:39:00,49.3,34.3,30.30,SW,235,0.0,0.0,56,0.00,,---,0.00,0.00,VWS V14.01,2013-11-16 21:39:00,
2013-11-16 16:44:00,48.7,34.6,30.30,SW,235,0.0,0.0,58,0.00,,---,0.00,0.00,VWS V14.01,2013-11-16 21:44:00,
2013-11-16 16:49:00,48.1,35.3,30.30,SW,235,0.0,0.0,61,0.00,,---,0.00,0.00,VWS V14.01,2013-11-16 21:49:00,
2013-11-16 16:54:00,47.7,34.1,30.30,SW,235,0.0,0.0,59,0.00,,---,0.00,0.00,VWS V14.01,2013-11-16 21:54:00,
2013-11-16 16:59:00,47.3,34.1,30.30,SW,235,0.0,0.0,60,0.00,,---,0.00,0.00,VWS V14.01,2013-11-16 21:59:00,
2013-11-16 17:00:00,47.2,34.5,30.30,SW,235,0.0,0.0,61,0.00,,---,0.00,0.00,VWS V14.01,2013-11-16 22:00:00,
2013-11-16 17:04:00,46.9,34.2,30.30,SW,235,0.0,0.0,61,0.00,,---,0.00,0.00,VWS V14.01,2013-11-16 22:04:00,
2013-11-16 17:09:00,46.4,33.7,30.30,SW,235,0.0,0.0,61,0.00,,---,0.00,0.00,VWS V14.01,2013-11-16 22:09:00,
2013-11-16 17:15:00,45.9,34.0,30.30,SW,235,0.0,0.0,63,0.00,,---,0.00,0.00,VWS V14.01,2013-11-16 22:15:00,
2013-11-16 17:20:00,45.4,34.0,30.30,SW,235,0.0,0.0,64,0.00,,---,0.00,0.00,VWS V14.01,2013-11-16 22:20:00,
2013-11-16 17:25:00,44.8,34.2,30.30,SW,235,0.0,0.0,66,0.00,,---,0.00,0.00,VWS V14.01,2013-11-16 22:25:00,
2013-11-16 17:30:00,44.3,33.7,30.30,SW,235,0.0,0.0,66,0.00,,---,0.00,0.00,VWS V14.01,2013-11-16 22:30:00,
2013-11-16 17:37:00,43.7,33.8,30.30,SW,235,0.0,0.0,68,0.00,,---,0.00,0.00,VWS V14.01,2013-11-16 22:37:00,
2013-11-16 17:42:00,43.0,33.5,30.30,SW,235,0.0,0.0,69,0.00,,---,0.00,0.00,VWS V14.01,2013-11-16 22:42:00,
2013-11-16 17:47:00,42.5,33.4,30.30,SW,235,0.0,0.0,70,0.00,,---,0.00,0.00,VWS V14.01,2013-11-16 22:47:00,
2013-11-16 17:56:00,41.6,33.3,30.30,SW,235,0.0,0.0,72,0.00,,---,0.00,0.00,VWS V14.01,2013-11-16 22:56:00,
2013-11-16 18:00:00,41.2,33.2,30.30,SW,235,0.0,0.0,73,0.00,,---,0.00,0.00,VWS V14.01,2013-11-16 23:00:00,
2013-11-16 18:01:00,41.2,33.2,30.30,SW,235,0.0,0.0,73,0.00,,---,0.00,0.00,VWS V14.01,2013-11-16 23:01:00,
2013-11-16 18:06:00,40.9,33.3,30.30,SW,235,0.0,0.0,74,0.00,,---,0.00,0.00,VWS V14.01,2013-11-16 23:06:00,
2013-11-16 18:11:00,40.6,33.3,30.30,SW,235,0.0,0.0,75,0.00,,---,0.00,0.00,VWS V14.01,2013-11-16 23:11:00,
2013-11-16 18:16:00,40.3,33.0,30.30,SW,235,0.0,0.0,75,0.00,,---,0.00,0.00,VWS V14.01,2013-11-16 23:16:00,
2013-11-16 18:21:00,39.9,33.0,30.31,SW,235,0.0,0.0,76,0.00,,---,0.00,0.00,VWS V14.01,2013-11-16 23:21:00,
2013-11-16 18:26:00,39.6,32.7,30.31,SW,235,0.0,0.0,76,0.00,,---,0.00,0.00,VWS V14.01,2013-11-16 23:26:00,
2013-11-16 18:30:00,39.3,32.7,30.31,SW,235,0.0,0.0,77,0.00,,---,0.00,0.00,VWS V14.01,2013-11-16 23:30:00,
2013-11-16 18:31:00,39.4,32.8,30.31,SW,235,0.0,0.0,77,0.00,,---,0.00,0.00,VWS V14.01,2013-11-16 23:31:00,
2013-11-16 18:36:00,39.1,32.5,30.31,SW,235,0.0,0.0,77,0.00,,---,0.00,0.00,VWS V14.01,2013-11-16 23:36:00,
2013-11-16 18:41:00,38.7,32.1,30.31,SW,235,0.0,0.0,77,0.00,,---,0.00,0.00,VWS V14.01,2013-11-16 23:41:00,
2013-11-16 18:46:00,38.3,32.4,30.31,SW,235,0.0,0.0,79,0.00,,---,0.00,0.00,VWS V14.01,2013-11-16 23:46:00,
2013-11-16 18:51:00,38.0,32.1,30.31,SW,235,0.0,0.0,79,0.00,,---,0.00,0.00,VWS V14.01,2013-11-16 23:51:00,
2013-11-16 18:56:00,37.9,32.3,30.31,SW,235,0.0,0.0,80,0.00,,---,0.00,0.00,VWS V14.01,2013-11-16 23:56:00,
2013-11-16 19:00:00,37.7,32.1,30.32,SW,235,0.0,0.0,80,0.00,,---,0.00,0.00,VWS V14.01,2013-11-17 00:00:00,
2013-11-16 19:01:00,37.7,32.1,30.32,SW,235,0.0,0.0,80,0.00,,---,0.00,0.00,VWS V14.01,2013-11-17 00:01:00,
2013-11-16 19:06:00,37.5,31.9,30.32,SW,235,0.0,0.0,80,0.00,,---,0.00,0.00,VWS V14.01,2013-11-17 00:06:00,
2013-11-16 19:11:00,37.2,31.9,30.32,SW,235,0.0,0.0,81,0.00,,---,0.00,0.00,VWS V14.01,2013-11-17 00:11:00,
2013-11-16 19:16:00,36.8,31.5,30.33,SW,235,0.0,0.0,81,0.00,,---,0.00,0.00,VWS V14.01,2013-11-17 00:16:00,
2013-11-16 19:21:00,36.4,31.4,30.33,SW,235,0.0,0.0,82,0.00,,---,0.00,0.00,VWS V14.01,2013-11-17 00:21:00,
2013-11-16 19:26:00,36.2,31.5,30.33,SW,235,0.0,0.0,83,0.00,,---,0.00,0.00,VWS V14.01,2013-11-17 00:26:00,
2013-11-16 19:30:00,36.2,31.8,30.33,SW,235,0.0,0.0,84,0.00,,---,0.00,0.00,VWS V14.01,2013-11-17 00:30:00,
2013-11-16 19:31:00,36.2,31.8,30.33,SW,235,0.0,0.0,84,0.00,,---,0.00,0.00,VWS V14.01,2013-11-17 00:31:00,
2013-11-16 19:36:00,36.2,32.1,30.32,SW,235,0.0,0.0,85,0.00,,---,0.00,0.00,VWS V14.01,2013-11-17 00:36:00,
2013-11-16 19:41:00,36.2,31.8,30.32,SW,235,0.0,0.0,84,0.00,,---,0.00,0.00,VWS V14.01,2013-11-17 00:41:00,
2013-11-16 19:46:00,35.9,31.5,30.32,SW,235,0.0,0.0,84,0.00,,---,0.00,0.00,VWS V14.01,2013-11-17 00:46:00,
2013-11-16 19:51:00,35.6,31.2,30.32,SW,235,0.0,0.0,84,0.00,,---,0.00,0.00,VWS V14.01,2013-11-17 00:51:00,
2013-11-16 19:56:00,35.3,31.0,30.32,SW,235,0.0,0.0,84,0.00,,---,0.00,0.00,VWS V14.01,2013-11-17 00:56:00,
2013-11-16 20:00:00,35.1,31.0,30.33,SW,235,0.0,0.0,85,0.00,,---,0.00,0.00,VWS V14.01,2013-11-17 01:00:00,
2013-11-16 20:01:00,35.1,31.0,30.33,SW,235,0.0,0.0,85,0.00,,---,0.00,0.00,VWS V14.01,2013-11-17 01:01:00,
2013-11-16 20:06:00,34.8,30.8,30.33,SW,235,0.0,0.0,85,0.00,,---,0.00,0.00,VWS V14.01,2013-11-17 01:06:00,
2013-11-16 20:11:00,34.6,30.9,30.33,SW,235,0.0,0.0,86,0.00,,---,0.00,0.00,VWS V14.01,2013-11-17 01:11:00,
2013-11-16 20:16:00,34.4,30.9,30.33,SW,235,0.0,0.0,87,0.00,,---,0.00,0.00,VWS V14.01,2013-11-17 01:16:00,
2013-11-16 20:21:00,34.3,30.8,30.33,SW,235,0.0,0.0,87,0.00,,---,0.00,0.00,VWS V14.01,2013-11-17 01:21:00,
2013-11-16 20:26:00,34.5,31.3,30.32,SW,235,0.0,0.0,88,0.00,,---,0.00,0.00,VWS V14.01,2013-11-17 01:26:00,
2013-11-16 20:30:00,34.5,31.3,30.32,SW,235,0.0,0.0,88,0.00,,---,0.00,0.00,VWS V14.01,2013-11-17 01:30:00,
2013-11-16 20:31:00,34.5,31.3,30.32,SW,235,0.0,0.0,88,0.00,,---,0.00,0.00,VWS V14.01,2013-11-17 01:31:00,
2013-11-16 20:36:00,34.4,30.9,30.32,SW,235,0.0,0.0,87,0.00,,---,0.00,0.00,VWS V14.01,2013-11-17 01:36:00,
2013-11-16 20:41:00,34.2,30.7,30.32,SW,235,0.0,0.0,87,0.00,,---,0.00,0.00,VWS V14.01,2013-11-17 01:41:00,
2013-11-16 20:46:00,33.8,30.1,30.32,SW,235,0.0,0.0,86,0.00,,---,0.00,0.00,VWS V14.01,2013-11-17 01:46:00,
2013-11-16 20:51:00,33.5,30.0,30.32,SW,235,0.0,0.0,87,0.00,,---,0.00,0.00,VWS V14.01,2013-11-17 01:51:00,
2013-11-16 20:56:00,33.3,30.1,30.32,SW,235,0.0,0.0,88,0.00,,---,0.00,0.00,VWS V14.01,2013-11-17 01:56:00,
2013-11-16 21:00:00,33.1,29.9,30.32,SW,235,0.0,0.0,88,0.00,,---,0.00,0.00,VWS V14.01,2013-11-17 02:00:00,
2013-11-16 21:01:00,33.1,29.9,30.32,SW,235,0.0,0.0,88,0.00,,---,0.00,0.00,VWS V14.01,2013-11-17 02:01:00,
2013-11-16 21:06:00,33.0,29.8,30.32,SW,235,0.0,0.0,88,0.00,,---,0.00,0.00,VWS V14.01,2013-11-17 02:06:00,
2013-11-16 21:11:00,32.9,30.0,30.32,SW,235,0.0,0.0,89,0.00,,---,0.00,0.00,VWS V14.01,2013-11-17 02:11:00,
2013-11-16 21:16:00,33.0,30.1,30.32,SW,235,0.0,0.0,89,0.00,,---,0.00,0.00,VWS V14.01,2013-11-17 02:16:00,
2013-11-16 21:21:00,33.0,30.1,30.33,SW,235,0.0,0.0,89,0.00,,---,0.00,0.00,VWS V14.01,2013-11-17 02:21:00,
2013-11-16 21:26:00,33.0,30.1,30.33,SW,235,0.0,0.0,89,0.00,,---,0.00,0.00,VWS V14.01,2013-11-17 02:26:00,
2013-11-16 21:30:00,32.9,30.0,30.33,SW,235,0.0,0.0,89,0.00,,---,0.00,0.00,VWS V14.01,2013-11-17 02:30:00,
2013-11-16 21:31:00,32.9,30.0,30.33,SW,235,0.0,0.0,89,0.00,,---,0.00,0.00,VWS V14.01,2013-11-17 02:31:00,
2013-11-16 21:36:00,32.7,29.8,30.32,SW,235,0.0,0.0,89,0.00,,---,0.00,0.00,VWS V14.01,2013-11-17 02:36:00,
2013-11-16 21:41:00,32.6,29.7,30.32,SW,235,0.0,0.0,89,0.00,,---,0.00,0.00,VWS V14.01,2013-11-17 02:41:00,
2013-11-16 21:46:00,32.6,30.0,30.32,SW,235,0.0,0.0,90,0.00,,---,0.00,0.00,VWS V14.01,2013-11-17 02:46:00,
2013-11-16 21:51:00,32.6,30.0,30.32,SW,235,0.0,0.0,90,0.00,,---,0.00,0.00,VWS V14.01,2013-11-17 02:51:00,
2013-11-16 21:56:00,32.5,29.9,30.32,SW,235,0.0,0.0,90,0.00,,---,0.00,0.00,VWS V14.01,2013-11-17 02:56:00,
2013-11-16 22:00:00,32.4,29.5,30.32,SW,235,0.0,0.0,89,0.00,,---,0.00,0.00,VWS V14.01,2013-11-17 03:00:00,
2013-11-16 22:01:00,32.4,29.5,30.32,SW,235,0.0,0.0,89,0.00,,---,0.00,0.00,VWS V14.01,2013-11-17 03:01:00,
2013-11-16 22:06:00,32.3,29.7,30.32,SW,235,0.0,0.0,90,0.00,,---,0.00,0.00,VWS V14.01,2013-11-17 03:06:00,
2013-11-16 22:11:00,32.1,29.5,30.32,SW,235,0.0,0.0,90,0.00,,---,0.00,0.00,VWS V14.01,2013-11-17 03:11:00,
2013-11-16 22:16:00,32.0,29.4,30.32,SW,235,0.0,0.0,90,0.00,,---,0.00,0.00,VWS V14.01,2013-11-17 03:16:00,
2013-11-16 22:21:00,32.0,29.4,30.31,SW,235,0.0,0.0,90,0.00,,---,0.00,0.00,VWS V14.01,2013-11-17 03:21:00,
2013-11-16 22:26:00,31.9,29.3,30.32,SW,235,0.0,0.0,90,0.00,,---,0.00,0.00,VWS V14.01,2013-11-17 03:26:00,
2013-11-16 22:30:00,31.8,29.2,30.32,SW,235,0.0,0.0,90,0.00,,---,0.00,0.00,VWS V14.01,2013-11-17 03:30:00,
2013-11-16 22:31:00,31.8,29.2,30.32,SW,235,0.0,0.0,90,0.00,,---,0.00,0.00,VWS V14.01,2013-11-17 03:31:00,
2013-11-16 22:36:00,31.7,29.1,30.32,SW,235,0.0,0.0,90,0.00,,---,0.00,0.00,VWS V14.01,2013-11-17 03:36:00,
2013-11-16 22:41:00,31.6,29.0,30.32,SW,235,0.0,0.0,90,0.00,,---,0.00,0.00,VWS V14.01,2013-11-17 03:41:00,
2013-11-16 22:46:00,31.5,29.2,30.32,SW,235,0.0,0.0,91,0.00,,---,0.00,0.00,VWS V14.01,2013-11-17 03:46:00,
2013-11-16 22:51:00,31.5,29.2,30.32,SW,235,0.0,0.0,91,0.00,,---,0.00,0.00,VWS V14.01,2013-11-17 03:51:00,
2013-11-16 22:56:00,31.5,29.2,30.32,SW,235,0.0,0.0,91,0.00,,---,0.00,0.00,VWS V14.01,2013-11-17 03:56:00,
2013-11-16 23:00:00,31.4,29.1,30.31,SW,235,0.0,0.0,91,0.00,,---,0.00,0.00,VWS V14.01,2013-11-17 04:00:00,
2013-11-16 23:01:00,31.4,29.1,30.31,SW,235,0.0,0.0,91,0.00,,---,0.00,0.00,VWS V14.01,2013-11-17 04:01:00,
2013-11-16 23:06:00,31.4,29.1,30.32,SW,235,0.0,0.0,91,0.00,,---,0.00,0.00,VWS V14.01,2013-11-17 04:06:00,
2013-11-16 23:11:00,31.5,29.5,30.31,SW,235,0.0,0.0,92,0.00,,---,0.00,0.00,VWS V14.01,2013-11-17 04:11:00,
2013-11-16 23:16:00,31.5,29.5,30.32,SW,235,0.0,0.0,92,0.00,,---,0.00,0.00,VWS V14.01,2013-11-17 04:16:00,
2013-11-16 23:21:00,31.4,29.1,30.31,SW,235,0.0,0.0,91,0.00,,---,0.00,0.00,VWS V14.01,2013-11-17 04:21:00,
2013-11-16 23:26:00,31.3,29.0,30.31,SW,235,0.0,0.0,91,0.00,,---,0.00,0.00,VWS V14.01,2013-11-17 04:26:00,
2013-11-16 23:30:00,31.4,29.4,30.31,SW,235,0.0,0.0,92,0.00,,---,0.00,0.00,VWS V14.01,2013-11-17 04:30:00,
2013-11-16 23:31:00,31.3,29.2,30.31,SW,235,0.0,0.0,92,0.00,,---,0.00,0.00,VWS V14.01,2013-11-17 04:31:00,
2013-11-16 23:36:00,31.5,29.5,30.31,SW,235,0.0,0.0,92,0.00,,---,0.00,0.00,VWS V14.01,2013-11-17 04:36:00,
2013-11-16 23:41:00,31.7,29.9,30.31,SW,235,0.0,0.0,93,0.00,,---,0.00,0.00,VWS V14.01,2013-11-17 04:41:00,
2013-11-16 23:46:00,32.0,30.2,30.31,SW,235,0.0,0.0,93,0.00,,---,0.00,0.00,VWS V14.01,2013-11-17 04:46:00,
2013-11-16 23:51:00,31.9,29.8,30.31,SW,235,0.0,0.0,92,0.00,,---,0.00,0.00,VWS V14.01,2013-11-17 04:51:00,
2013-11-16 23:56:00,31.8,29.8,30.31,SW,235,0.0,0.0,92,0.00,,---,0.00,0.00,VWS V14.01,2013-11-17 04:56:00,